Time;durP1;ratioP1;P1;durP2;ratioP2;P2;SDS_P1;SDS_P2;PMS_P1;PMS_P2;Temp;Humidity;BMP_temperature;BMP_pressure;BME280_temperature;BME280_humidity;BME280_pressure;Samples;Min_cycle;Max_cycle;Signal;HPM_P1;HPM_P2
2022/07/24 00:01:33;;;;;;;;;;;;;;;15.92;99.99;99358.73;1621675;88;20092;-75
2022/07/24 00:03:59;;;;;;;;;;;;;;;15.90;100.00;99362.44;1621700;88;20440;-75
2022/07/24 00:06:26;;;;;;;;;;;;;;;15.91;100.00;99361.86;1621677;88;20125;-73
2022/07/24 00:08:53;;;;;;;;;;;;;;;15.90;100.00;99366.59;1621711;88;21167;-73
2022/07/24 00:11:19;;;;;;;;;;;;;;;15.91;100.00;99361.86;1621660;88;20168;-73
2022/07/24 00:13:46;;;;;;;;;;;;;;;15.91;100.00;99359.89;1621788;88;20109;-73
2022/07/24 00:16:12;;;;;;;;;;;;;;;15.95;100.00;99361.37;1622041;88;20153;-74
2022/07/24 00:18:39;;;;;;;;;;;;;;;15.96;100.00;99362.40;1621938;88;20101;-73
2022/07/24 00:21:05;;;;;;;;;;;;;;;15.97;100.00;99368.74;1621865;88;21161;-73
2022/07/24 00:23:33;;;;;;;;;;;;;;;15.96;100.00;99365.75;1621834;88;20133;-72
2022/07/24 00:26:00;;;;;;;;;;;;;;;15.96;100.00;99361.59;1621864;88;20136;-73
2022/07/24 00:28:26;;;;;;;;;;;;;;;15.97;100.00;99363.20;1622006;88;20774;-74
2022/07/24 00:30:52;;;;;;;;;;;;;;;15.99;100.00;99358.92;1622041;88;20101;-74
2022/07/24 00:33:19;;;;;;;;;;;;;;;16.02;100.00;99357.41;1621834;88;22131;-74
2022/07/24 00:35:45;;;;;;;;;;;;;;;16.06;100.00;99362.45;1621959;88;20122;-71
2022/07/24 00:38:12;;;;;;;;;;;;;;;16.14;100.00;99362.86;1621866;88;20118;-71
2022/07/24 00:40:39;;;;;;;;;;;;;;;16.13;100.00;99355.13;1621853;88;20650;-71
2022/07/24 00:43:05;;;;;;;;;;;;;;;16.13;100.00;99365.41;1622103;88;20117;-72
2022/07/24 00:45:31;;;;;;;;;;;;;;;16.12;100.00;99367.95;1622097;88;21777;-72
2022/07/24 00:47:58;;;;;;;;;;;;;;;16.10;100.00;99364.73;1621750;88;20101;-72
2022/07/24 00:50:25;;;;;;;;;;;;;;;16.10;100.00;99361.97;1621883;88;20129;-73
2022/07/24 00:52:51;;;;;;;;;;;;;;;16.11;100.00;99360.80;1622025;88;20471;-73
2022/07/24 00:55:18;;;;;;;;;;;;;;;16.08;99.96;99369.83;1622095;88;20121;-73
2022/07/24 00:57:48;;;;;;;;;;;;;;;16.03;99.86;99366.73;1622013;88;21156;-72
2022/07/24 01:00:14;;;;;;;;;;;;;;;16.01;99.80;99362.72;1622105;88;20444;-73
2022/07/24 01:02:41;;;;;;;;;;;;;;;15.95;99.79;99358.02;1626736;87;20142;-75
2022/07/24 01:05:09;;;;;;;;;;;;;;;15.92;99.78;99353.78;1622221;88;20100;-75
2022/07/24 01:07:36;;;;;;;;;;;;;;;15.87;99.96;99352.66;1638734;87;20438;-73
2022/07/24 01:10:03;;;;;;;;;;;;;;;15.84;100.00;99361.89;1648446;86;21134;-73
2022/07/24 01:12:31;;;;;;;;;;;;;;;15.82;100.00;99355.10;1642643;86;20157;-73
2022/07/24 01:14:59;;;;;;;;;;;;;;;15.81;100.00;99358.45;1637258;87;20146;-73
2022/07/24 01:17:33;;;;;;;;;;;;;;;15.81;100.00;99356.27;1631354;87;20105;-73
2022/07/24 01:20:00;;;;;;;;;;;;;;;15.80;100.00;99349.12;1648438;87;20500;-73
2022/07/24 01:22:26;;;;;;;;;;;;;;;15.79;100.00;99355.23;1648652;87;21503;-73
2022/07/24 01:24:54;;;;;;;;;;;;;;;15.78;100.00;99358.36;1648441;87;20098;-73
2022/07/24 01:27:23;;;;;;;;;;;;;;;15.79;100.00;99354.43;1648726;87;20146;-73
2022/07/24 01:29:49;;;;;;;;;;;;;;;15.81;100.00;99357.64;1648441;87;20123;-71
2022/07/24 01:32:15;;;;;;;;;;;;;;;15.84;100.00;99358.32;1648653;87;20079;-71
2022/07/24 01:34:42;;;;;;;;;;;;;;;15.90;100.00;99350.56;1648832;87;21143;-71
2022/07/24 01:37:10;;;;;;;;;;;;;;;15.99;100.00;99354.77;1648387;87;20198;-71
2022/07/24 01:39:37;;;;;;;;;;;;;;;16.19;100.00;99351.48;1648547;87;32458;-71
2022/07/24 01:42:04;;;;;;;;;;;;;;;16.34;99.44;99350.67;1648608;87;20119;-71
2022/07/24 01:44:30;;;;;;;;;;;;;;;16.39;98.66;99339.33;1648469;87;20133;-71
2022/07/24 01:46:56;;;;;;;;;;;;;;;16.45;98.04;99338.47;1648529;87;21154;-71
2022/07/24 01:49:24;;;;;;;;;;;;;;;16.44;97.54;99338.25;1648327;86;20443;-71
2022/07/24 01:51:51;;;;;;;;;;;;;;;16.41;97.32;99341.16;1648210;87;20122;-71
2022/07/24 01:54:17;;;;;;;;;;;;;;;16.40;97.02;99345.09;1648253;87;20446;-71
2022/07/24 01:56:43;;;;;;;;;;;;;;;16.38;96.91;99339.10;1648352;87;20131;-71
2022/07/24 01:59:10;;;;;;;;;;;;;;;16.31;96.77;99338.92;1648180;87;21617;-71
2022/07/24 02:01:37;;;;;;;;;;;;;;;16.25;96.69;99337.59;1648153;87;20487;-73
2022/07/24 02:04:04;;;;;;;;;;;;;;;16.16;96.90;99327.31;1648278;87;20178;-72
2022/07/24 02:06:31;;;;;;;;;;;;;;;16.07;96.99;99328.87;1648454;87;20154;-72
2022/07/24 02:08:58;;;;;;;;;;;;;;;16.00;97.83;99327.89;1648447;87;20099;-72
2022/07/24 02:11:24;;;;;;;;;;;;;;;15.93;98.09;99330.47;1648183;87;21168;-72
2022/07/24 02:13:52;;;;;;;;;;;;;;;15.87;98.43;99336.85;1648173;87;20126;-72
2022/07/24 02:16:19;;;;;;;;;;;;;;;15.81;98.91;99335.50;1648198;87;20098;-72
2022/07/24 02:18:47;;;;;;;;;;;;;;;15.76;99.13;99339.91;1648264;87;20107;-72
2022/07/24 02:21:13;;;;;;;;;;;;;;;15.70;99.31;99345.48;1648224;87;20434;-72
2022/07/24 02:23:40;;;;;;;;;;;;;;;15.65;99.75;99351.28;1648212;87;21223;-73
2022/07/24 02:26:08;;;;;;;;;;;;;;;15.62;100.00;99353.37;1648122;87;20478;-72
2022/07/24 02:28:35;;;;;;;;;;;;;;;15.59;100.00;99349.95;1640590;87;20089;-72
2022/07/24 02:31:01;;;;;;;;;;;;;;;15.53;100.00;99345.23;1645472;87;20402;-72
2022/07/24 02:33:29;;;;;;;;;;;;;;;15.50;100.00;99343.16;1648219;87;20490;-72
2022/07/24 02:35:57;;;;;;;;;;;;;;;15.45;100.00;99341.45;1648184;87;20091;-72
2022/07/24 02:38:24;;;;;;;;;;;;;;;15.44;100.00;99343.19;1622719;87;20460;-72
2022/07/24 02:40:50;;;;;;;;;;;;;;;15.43;100.00;99340.20;1622016;88;20172;-72
2022/07/24 02:43:17;;;;;;;;;;;;;;;15.42;100.00;99341.36;1629034;87;20125;-71
2022/07/24 02:45:44;;;;;;;;;;;;;;;15.44;100.00;99333.51;1646088;87;20102;-71
2022/07/24 02:48:11;;;;;;;;;;;;;;;15.47;100.00;99337.76;1621745;88;21171;-72
2022/07/24 02:50:38;;;;;;;;;;;;;;;15.52;100.00;99336.70;1621573;88;20161;-72
2022/07/24 02:53:06;;;;;;;;;;;;;;;15.57;100.00;99332.33;1621504;88;20138;-72
2022/07/24 02:55:33;;;;;;;;;;;;;;;15.62;100.00;99327.89;1632293;87;20159;-72
2022/07/24 02:57:59;;;;;;;;;;;;;;;15.67;100.00;99327.63;1648224;87;20123;-71
2022/07/24 03:00:26;;;;;;;;;;;;;;;15.74;100.00;99318.13;1648251;87;22166;-71
2022/07/24 03:02:52;;;;;;;;;;;;;;;15.82;100.00;99326.05;1648388;87;20090;-71
2022/07/24 03:05:18;;;;;;;;;;;;;;;15.90;100.00;99325.06;1648155;87;20115;-71
2022/07/24 03:07:45;;;;;;;;;;;;;;;16.00;100.00;99324.53;1648103;87;20127;-73
2022/07/24 03:10:12;;;;;;;;;;;;;;;16.12;100.00;99320.88;1648237;87;20171;-73
2022/07/24 03:12:38;;;;;;;;;;;;;;;16.23;100.00;99312.22;1648159;87;21533;-73
2022/07/24 03:15:06;;;;;;;;;;;;;;;16.37;100.00;99302.86;1648156;87;20115;-73
2022/07/24 03:17:33;;;;;;;;;;;;;;;16.57;100.00;99300.95;1648179;87;20127;-73
2022/07/24 03:20:00;;;;;;;;;;;;;;;16.81;100.00;99303.48;1648136;87;20185;-72
2022/07/24 03:22:27;;;;;;;;;;;;;;;17.05;100.00;99303.79;1632655;87;20101;-73
2022/07/24 03:24:55;;;;;;;;;;;;;;;17.24;100.00;99300.80;1621854;88;20092;-73
2022/07/24 03:27:21;;;;;;;;;;;;;;;17.42;100.00;99301.34;1621705;88;20440;-73
2022/07/24 03:29:48;;;;;;;;;;;;;;;17.61;100.00;99305.25;1621699;88;20129;-73
2022/07/24 03:32:15;;;;;;;;;;;;;;;17.83;100.00;99305.89;1646638;87;20624;-73
2022/07/24 03:34:41;;;;;;;;;;;;;;;18.00;100.00;99298.42;1648186;87;20098;-72
2022/07/24 03:37:07;;;;;;;;;;;;;;;18.15;99.87;99303.05;1648106;87;22177;-72
2022/07/24 03:39:35;;;;;;;;;;;;;;;18.30;98.74;99300.50;1648084;87;20100;-71
2022/07/24 03:42:01;;;;;;;;;;;;;;;18.46;96.74;99302.54;1648096;87;20210;-72
2022/07/24 03:44:27;;;;;;;;;;;;;;;18.62;95.81;99303.18;1648181;87;20212;-72
2022/07/24 03:46:54;;;;;;;;;;;;;;;18.79;93.35;99303.22;1648194;87;20458;-72
2022/07/24 03:49:21;;;;;;;;;;;;;;;18.97;91.81;99304.85;1648091;87;21572;-73
2022/07/24 03:51:48;;;;;;;;;;;;;;;19.13;90.66;99311.80;1634593;87;20230;-73
2022/07/24 03:54:14;;;;;;;;;;;;;;;19.29;89.37;99309.40;1622074;88;20118;-72
2022/07/24 03:56:41;;;;;;;;;;;;;;;19.43;87.97;99307.58;1621896;88;20132;-72
2022/07/24 03:59:09;;;;;;;;;;;;;;;19.55;86.25;99302.97;1621924;88;20169;-72
2022/07/24 04:01:35;;;;;;;;;;;;;;;19.64;84.84;99301.45;1621933;88;21565;-73
2022/07/24 04:04:04;;;;;;;;;;;;;;;19.71;83.13;99305.70;1621835;88;20096;-73
2022/07/24 04:06:32;;;;;;;;;;;;;;;19.77;82.00;99306.95;1622007;88;20178;-73
2022/07/24 04:08:59;;;;;;;;;;;;;;;19.83;81.86;99305.21;1621971;88;20117;-74
2022/07/24 04:11:26;;;;;;;;;;;;;;;19.86;81.05;99307.23;1602237;88;20464;-73
2022/07/24 04:13:53;;;;;;;;;;;;;;;19.90;80.50;99310.85;1622007;88;21167;-74
2022/07/24 04:16:20;;;;;;;;;;;;;;;19.94;80.53;99311.69;1621833;88;20138;-75
2022/07/24 04:18:46;;;;;;;;;;;;;;;19.95;80.07;99307.13;1621890;88;20455;-75
2022/07/24 04:21:12;;;;;;;;;;;;;;;19.97;80.74;99297.79;1621933;88;20105;-73
2022/07/24 04:23:39;;;;;;;;;;;;;;;19.99;81.40;99293.23;1622238;88;20128;-74
2022/07/24 04:26:05;;;;;;;;;;;;;;;19.98;80.99;99287.45;1622003;88;21172;-74
2022/07/24 04:28:32;;;;;;;;;;;;;;;19.97;80.48;99284.45;1621914;88;20125;-77
2022/07/24 04:30:58;;;;;;;;;;;;;;;19.97;80.46;99291.42;1621872;88;20456;-75
2022/07/24 04:33:24;;;;;;;;;;;;;;;19.98;80.24;99293.02;1622095;88;20096;-75
2022/07/24 04:35:51;;;;;;;;;;;;;;;19.99;79.67;99291.84;1621987;88;20140;-73
2022/07/24 04:38:17;;;;;;;;;;;;;;;19.99;79.76;99289.05;1621907;88;21280;-75
2022/07/24 04:40:44;;;;;;;;;;;;;;;19.99;80.11;99290.44;1621866;88;20093;-76
2022/07/24 04:43:11;;;;;;;;;;;;;;;19.99;80.87;99294.63;1621912;88;20172;-77
2022/07/24 04:45:37;;;;;;;;;;;;;;;19.96;82.73;99291.21;1622165;88;20105;-75
2022/07/24 04:48:05;;;;;;;;;;;;;;;19.92;83.28;99300.13;1625664;87;20093;-75
2022/07/24 04:50:33;;;;;;;;;;;;;;;19.87;84.00;99299.08;1622791;88;21171;-75
2022/07/24 04:52:59;;;;;;;;;;;;;;;19.81;84.25;99300.62;1625043;87;20521;-74
2022/07/24 04:55:25;;;;;;;;;;;;;;;19.76;83.65;99306.74;1626866;87;20149;-74
2022/07/24 04:57:52;;;;;;;;;;;;;;;19.71;83.51;99303.51;1626802;88;20101;-77
2022/07/24 05:00:18;;;;;;;;;;;;;;;19.69;83.34;99304.48;1626901;87;20455;-85
2022/07/24 05:02:45;;;;;;;;;;;;;;;19.65;83.30;99302.25;1627073;88;21568;-83
2022/07/24 05:05:11;;;;;;;;;;;;;;;19.63;83.46;99302.66;1626846;87;20443;-90
2022/07/24 05:07:38;;;;;;;;;;;;;;;19.62;84.00;99298.87;1626159;87;20117;-86
2022/07/24 05:10:06;;;;;;;;;;;;;;;19.62;83.89;99301.66;1626910;88;20156;-80
2022/07/24 05:12:32;;;;;;;;;;;;;;;19.63;83.81;99298.48;1626990;88;20129;-80
2022/07/24 05:14:59;;;;;;;;;;;;;;;19.68;83.48;99305.07;1627015;87;21167;-79
2022/07/24 05:17:26;;;;;;;;;;;;;;;19.71;84.24;99301.52;1627148;88;20117;-74
2022/07/24 05:19:53;;;;;;;;;;;;;;;19.76;84.13;99303.95;1627267;88;20092;-83
2022/07/24 05:22:19;;;;;;;;;;;;;;;19.84;83.50;99312.38;1627312;88;20348;-85
2022/07/24 05:24:45;;;;;;;;;;;;;;;19.89;82.82;99305.88;1627265;88;20105;-85
2022/07/24 05:27:12;;;;;;;;;;;;;;;19.99;82.61;99302.98;1627095;87;21845;-86
2022/07/24 05:29:39;;;;;;;;;;;;;;;20.10;82.09;99308.86;1626883;87;20195;-83
2022/07/24 05:32:06;;;;;;;;;;;;;;;20.20;81.35;99309.33;1627091;88;20105;-82
2022/07/24 05:34:33;;;;;;;;;;;;;;;20.32;80.80;99306.21;1627004;87;20220;-74
2022/07/24 05:37:01;;;;;;;;;;;;;;;20.43;80.42;99317.69;1626977;87;20152;-82
2022/07/24 05:39:27;;;;;;;;;;;;;;;20.58;80.30;99313.60;1627107;87;21167;-75
2022/07/24 05:41:54;;;;;;;;;;;;;;;20.74;79.56;99303.75;1626917;88;20104;-76
2022/07/24 05:44:21;;;;;;;;;;;;;;;20.91;78.32;99300.83;1626923;88;20105;-73
2022/07/24 05:46:48;;;;;;;;;;;;;;;21.08;78.12;99298.72;1627104;88;20100;-77
2022/07/24 05:49:14;;;;;;;;;;;;;;;21.25;77.58;99295.03;1626938;88;20464;-78
2022/07/24 05:51:43;;;;;;;;;;;;;;;21.42;76.09;99295.06;1626675;87;20121;-76
2022/07/24 05:54:09;;;;;;;;;;;;;;;21.60;75.40;99299.30;1626861;88;20468;-78
2022/07/24 05:56:35;;;;;;;;;;;;;;;21.77;76.17;99285.77;1626737;88;20085;-81
2022/07/24 05:59:03;;;;;;;;;;;;;;;21.94;75.01;99287.78;1626901;88;20108;-73
2022/07/24 06:01:31;;;;;;;;;;;;;;;22.10;74.28;99282.60;1626898;87;20451;-78
2022/07/24 06:03:59;;;;;;;;;;;;;;;22.23;73.33;99286.59;1626900;87;21160;-78
2022/07/24 06:06:25;;;;;;;;;;;;;;;22.37;72.66;99288.59;1648332;85;20118;-78
2022/07/24 06:08:51;;;;;;;;;;;;;;;22.52;72.43;99276.18;1664425;86;20083;-72
2022/07/24 06:11:18;;;;;;;;;;;;;;;22.66;72.72;99273.92;1625592;87;20154;-77
2022/07/24 06:13:44;;;;;;;;;;;;;;;22.77;70.71;99266.91;1653489;86;20091;-78
2022/07/24 06:16:11;;;;;;;;;;;;;;;22.86;69.64;99271.51;1653569;87;21149;-84
2022/07/24 06:18:37;;;;;;;;;;;;;;;22.95;68.78;99269.87;1653426;86;20102;-77
2022/07/24 06:21:05;;;;;;;;;;;;;;;23.07;69.11;99272.03;1653421;86;20102;-74
2022/07/24 06:23:42;;;;;;;;;;;;;;;23.22;69.46;99260.94;1653459;87;20187;-76
2022/07/24 06:26:04;;;;;;;;;;;;;;;23.38;68.50;99262.66;1652961;86;20436;-80
2022/07/24 06:28:32;;;;;;;;;;;;;;;23.52;67.76;99265.38;1653641;87;21104;-75
2022/07/24 06:31:00;;;;;;;;;;;;;;;23.64;66.86;99263.53;1659429;85;20123;-82
2022/07/24 06:33:28;;;;;;;;;;;;;;;23.75;66.46;99259.83;1670317;86;20091;-81
2022/07/24 06:35:56;;;;;;;;;;;;;;;23.87;66.10;99263.55;1672124;86;20123;-75
2022/07/24 06:38:25;;;;;;;;;;;;;;;24.01;65.39;99259.23;1704393;83;20157;-77
2022/07/24 06:40:51;;;;;;;;;;;;;;;24.16;65.19;99257.91;1692412;84;21115;-82
2022/07/24 06:43:17;;;;;;;;;;;;;;;24.33;63.06;99256.16;1687330;84;20465;-75
2022/07/24 06:45:44;;;;;;;;;;;;;;;24.44;61.70;99246.23;1682834;83;20152;-76
2022/07/24 06:48:11;;;;;;;;;;;;;;;24.52;62.77;99243.55;1700459;83;20133;-75
2022/07/24 06:50:37;;;;;;;;;;;;;;;24.65;62.98;99238.99;1686493;83;20116;-81
2022/07/24 06:53:04;;;;;;;;;;;;;;;24.81;61.39;99227.19;1685360;85;22209;-77
2022/07/24 06:55:30;;;;;;;;;;;;;;;24.98;61.76;99223.37;1685380;85;20111;-76
2022/07/24 06:57:58;;;;;;;;;;;;;;;25.18;61.15;99227.73;1685417;85;20447;-78
2022/07/24 07:00:25;;;;;;;;;;;;;;;25.37;60.93;99217.84;1685420;85;20314;-79
2022/07/24 07:02:52;;;;;;;;;;;;;;;25.58;59.70;99217.49;1685577;84;20183;-77
2022/07/24 07:05:18;;;;;;;;;;;;;;;25.72;57.39;99215.90;1685654;84;21116;-77
2022/07/24 07:07:45;;;;;;;;;;;;;;;25.80;56.37;99217.38;1685507;85;20431;-79
2022/07/24 07:10:12;;;;;;;;;;;;;;;25.91;57.07;99217.20;1685355;85;20092;-72
2022/07/24 07:12:38;;;;;;;;;;;;;;;26.08;56.82;99214.67;1685723;85;20135;-72
2022/07/24 07:15:06;;;;;;;;;;;;;;;26.26;56.98;99210.94;1685526;85;20176;-77
2022/07/24 07:17:32;;;;;;;;;;;;;;;26.46;56.03;99208.80;1685432;84;21564;-76
2022/07/24 07:19:59;;;;;;;;;;;;;;;26.61;53.42;99208.06;1685344;84;20447;-85
2022/07/24 07:22:26;;;;;;;;;;;;;;;26.68;52.79;99200.70;1665821;85;20127;-77
2022/07/24 07:24:53;;;;;;;;;;;;;;;26.75;52.95;99212.62;1685403;84;20438;-78
2022/07/24 07:27:20;;;;;;;;;;;;;;;26.79;52.52;99203.49;1685890;85;20129;-75
2022/07/24 07:29:47;;;;;;;;;;;;;;;26.81;51.94;99199.63;1685437;84;22782;-74
2022/07/24 07:32:13;;;;;;;;;;;;;;;26.82;52.85;99205.44;1685339;84;20128;-78
2022/07/24 07:34:39;;;;;;;;;;;;;;;26.83;51.48;99204.21;1665965;85;20494;-78
2022/07/24 07:37:06;;;;;;;;;;;;;;;26.79;51.84;99199.27;1685624;84;20116;-78
2022/07/24 07:39:32;;;;;;;;;;;;;;;26.77;51.35;99203.75;1685439;85;20447;-77
2022/07/24 07:41:58;;;;;;;;;;;;;;;26.81;52.05;99199.63;1685688;84;21124;-79
2022/07/24 07:44:25;;;;;;;;;;;;;;;26.97;51.09;99196.11;1685520;84;20175;-78
2022/07/24 07:46:52;;;;;;;;;;;;;;;27.14;50.34;99198.37;1682230;84;20176;-79
2022/07/24 07:49:19;;;;;;;;;;;;;;;27.34;49.31;99197.69;1681558;85;20139;-80
2022/07/24 07:51:47;;;;;;;;;;;;;;;27.52;49.97;99201.50;1681638;84;20438;-78
2022/07/24 07:54:14;;;;;;;;;;;;;;;27.72;48.67;99199.44;1681535;85;21207;-81
2022/07/24 07:56:41;;;;;;;;;;;;;;;27.87;47.99;99197.03;1681509;85;20107;-81
2022/07/24 07:59:07;;;;;;;;;;;;;;;28.02;47.85;99186.19;1704002;83;20095;-79
2022/07/24 08:01:34;;;;;;;;;;;;;;;28.21;48.11;99197.98;1694921;83;20086;-76
2022/07/24 08:04:00;;;;;;;;;;;;;;;28.36;47.83;99191.34;1691732;85;20139;-74
2022/07/24 08:06:28;;;;;;;;;;;;;;;28.51;46.65;99189.71;1697991;83;20117;-75
2022/07/24 08:08:55;;;;;;;;;;;;;;;28.64;46.05;99181.28;1711459;83;20116;-73
2022/07/24 08:11:22;;;;;;;;;;;;;;;28.75;45.87;99176.92;1713930;83;20213;-74
2022/07/24 08:13:48;;;;;;;;;;;;;;;28.87;44.90;99180.42;1696255;84;20126;-81
2022/07/24 08:16:15;;;;;;;;;;;;;;;29.04;44.62;99174.67;1678311;85;20092;-81
2022/07/24 08:18:41;;;;;;;;;;;;;;;29.32;43.35;99180.07;1678352;85;21496;-79
2022/07/24 08:21:08;;;;;;;;;;;;;;;29.56;41.15;99168.59;1678443;85;20086;-76
2022/07/24 08:23:35;;;;;;;;;;;;;;;29.85;41.22;99172.69;1678621;85;20437;-80
2022/07/24 08:26:02;;;;;;;;;;;;;;;30.18;38.70;99168.31;1677869;85;20618;-80
2022/07/24 08:28:29;;;;;;;;;;;;;;;30.33;38.31;99171.43;1691583;82;20180;-80
2022/07/24 08:30:55;;;;;;;;;;;;;;;30.47;37.79;99168.72;1681116;84;21759;-82
2022/07/24 08:33:22;;;;;;;;;;;;;;;30.63;37.19;99164.28;1677100;85;20131;-77
2022/07/24 08:35:48;;;;;;;;;;;;;;;30.76;37.31;99165.00;1677419;85;20144;-76
2022/07/24 08:38:15;;;;;;;;;;;;;;;30.94;36.62;99158.66;1677279;85;20148;-70
2022/07/24 08:40:42;;;;;;;;;;;;;;;31.11;36.83;99156.39;1677428;85;20140;-70
2022/07/24 08:43:09;;;;;;;;;;;;;;;31.36;35.62;99156.20;1693158;83;21155;-71
2022/07/24 08:45:38;;;;;;;;;;;;;;;31.57;36.42;99163.69;1685727;84;20157;-75
2022/07/24 08:48:06;;;;;;;;;;;;;;;31.78;35.58;99157.13;1670702;85;20431;-77
2022/07/24 08:50:35;;;;;;;;;;;;;;;31.97;34.14;99160.17;1698244;82;20139;-75
2022/07/24 08:53:02;;;;;;;;;;;;;;;32.00;34.03;99158.44;1704845;83;21070;-70
2022/07/24 08:55:29;;;;;;;;;;;;;;;32.06;33.64;99159.39;1694915;84;21157;-77
2022/07/24 08:57:57;;;;;;;;;;;;;;;32.03;33.52;99161.13;1689053;84;20133;-77
2022/07/24 09:00:25;;;;;;;;;;;;;;;31.96;34.20;99157.17;1694089;84;20125;-75
2022/07/24 09:02:51;;;;;;;;;;;;;;;32.12;34.96;99162.55;1692155;84;20279;-77
2022/07/24 09:05:18;;;;;;;;;;;;;;;32.38;34.37;99158.78;1697451;83;21018;-77
2022/07/24 09:07:45;;;;;;;;;;;;;;;32.59;33.22;99157.67;1685563;85;21195;-78
2022/07/24 09:10:13;;;;;;;;;;;;;;;32.73;33.05;99159.23;1686218;85;20435;-71
2022/07/24 09:12:42;;;;;;;;;;;;;;;32.88;32.14;99160.82;1686372;85;20446;-69
2022/07/24 09:15:14;;;;;;;;;;;;;;;32.93;31.89;99160.81;1686562;85;20159;-77
2022/07/24 09:17:52;;;;;;;;;;;;;;;33.09;31.42;99160.42;1686455;85;20181;-76
2022/07/24 09:20:19;;;;;;;;;;;;;;;33.14;32.54;99156.30;1686635;85;21114;-75
2022/07/24 09:22:45;;;;;;;;;;;;;;;33.29;32.25;99161.34;1686154;85;20138;-78
2022/07/24 09:25:21;;;;;;;;;;;;;;;33.29;30.83;99156.44;1686495;85;20431;-76
2022/07/24 09:27:57;;;;;;;;;;;;;;;33.18;31.82;99155.34;1695722;84;20200;-75
2022/07/24 09:30:34;;;;;;;;;;;;;;;33.17;31.60;99164.51;1705854;84;20453;-81
2022/07/24 09:33:04;;;;;;;;;;;;;;;33.24;32.86;99155.64;1705687;84;21583;-76
2022/07/24 09:35:39;;;;;;;;;;;;;;;33.45;31.28;99154.63;1705120;84;20133;-81
2022/07/24 09:38:10;;;;;;;;;;;;;;;33.25;30.61;99140.78;1705596;84;20081;-76
2022/07/24 09:40:38;;;;;;;;;;;;;;;32.86;32.42;99150.56;1705560;83;20099;-86
2022/07/24 09:43:18;;;;;;;;;;;;;;;32.63;31.64;99156.88;1687584;84;20102;-86
2022/07/24 09:46:05;;;;;;;;;;;;;;;32.33;32.19;99151.55;1705864;84;21112;-84
2022/07/24 09:48:40;;;;;;;;;;;;;;;31.99;32.54;99150.55;1705540;84;20170;-71
2022/07/24 09:51:14;;;;;;;;;;;;;;;31.88;32.90;99142.33;1704572;84;20134;-71
2022/07/24 09:53:43;;;;;;;;;;;;;;;31.81;34.14;99147.05;1690313;85;21043;-71
2022/07/24 09:56:12;;;;;;;;;;;;;;;31.77;34.19;99144.98;1690510;85;20137;-71
2022/07/24 09:58:40;;;;;;;;;;;;;;;31.65;33.16;99143.06;1689819;84;21147;-71
2022/07/24 10:01:09;;;;;;;;;;;;;;;31.51;33.78;99150.11;1689884;85;20556;-71
2022/07/24 10:03:38;;;;;;;;;;;;;;;31.41;33.89;99154.80;1690609;85;20095;-70
2022/07/24 10:06:08;;;;;;;;;;;;;;;31.30;34.25;99151.60;1690470;85;20415;-70
2022/07/24 10:08:38;;;;;;;;;;;;;;;31.25;35.12;99150.16;1690305;85;20092;-70
2022/07/24 10:11:05;;;;;;;;;;;;;;;31.37;34.48;99141.39;1689969;85;21164;-70
2022/07/24 10:13:32;;;;;;;;;;;;;;;31.51;34.55;99147.28;1690396;85;20483;-69
2022/07/24 10:16:16;;;;;;;;;;;;;;;31.62;34.98;99147.47;1690430;85;20128;-69
2022/07/24 10:18:54;;;;;;;;;;;;;;;31.62;35.62;99137.54;1690444;85;20099;-69
2022/07/24 10:21:29;;;;;;;;;;;;;;;31.60;34.50;99132.33;1690401;85;20471;-69
2022/07/24 10:24:05;;;;;;;;;;;;;;;31.47;34.61;99138.13;1690671;85;21126;-70
2022/07/24 10:26:37;;;;;;;;;;;;;;;31.27;34.56;99134.89;1690474;85;20187;-69
2022/07/24 10:29:17;;;;;;;;;;;;;;;30.98;35.02;99138.69;1690532;84;20151;-69
2022/07/24 10:31:45;;;;;;;;;;;;;;;30.68;36.11;99138.19;1678114;85;20167;-69
2022/07/24 10:34:43;;;;;;;;;;;;;;;30.37;37.48;99132.45;1702598;84;20129;-70
2022/07/24 10:37:28;;;;;;;;;;;;;;;30.03;38.98;99139.58;1706396;84;22559;-69
2022/07/24 10:40:14;;;;;;;;;;;;;;;29.48;41.49;99143.20;1687558;84;20422;-69
2022/07/24 10:43:10;;;;;;;;;;;;;;;29.05;42.54;99140.93;1680777;84;20084;-69
2022/07/24 10:45:40;;;;;;;;;;;;;;;28.73;43.80;99142.69;1678289;85;20147;-69
2022/07/24 10:48:27;;;;;;;;;;;;;;;28.45;44.62;99149.14;1678159;85;20080;-69
2022/07/24 10:51:05;;;;;;;;;;;;;;;28.23;45.58;99145.53;1678255;85;21782;-68
2022/07/24 10:53:38;;;;;;;;;;;;;;;28.08;46.45;99141.47;1642642;86;20091;-69
2022/07/24 10:56:30;;;;;;;;;;;;;;;27.95;47.76;99132.94;1674929;84;20120;-69
2022/07/24 10:59:03;;;;;;;;;;;;;;;27.86;48.19;99133.39;1648429;84;20540;-69
2022/07/24 11:01:38;;;;;;;;;;;;;;;27.84;48.43;99133.05;1701952;83;20098;-69
2022/07/24 11:04:24;;;;;;;;;;;;;;;27.83;47.53;99135.69;1701469;84;21241;-68
2022/07/24 11:07:14;;;;;;;;;;;;;;;27.75;47.07;99127.23;1701326;84;20113;-70
2022/07/24 11:10:02;;;;;;;;;;;;;;;27.65;48.44;99133.97;1701416;83;20130;-70
2022/07/24 11:12:32;;;;;;;;;;;;;;;27.53;48.02;99132.62;1701440;84;20406;-70
2022/07/24 11:15:54;;;;;;;;;;;;;;;27.37;48.97;99130.58;1701552;84;20086;-69
2022/07/24 11:17:42;;;;;;;;;;;;;;;27.24;50.51;99130.48;1698483;84;21213;-69
2022/07/24 11:20:12;;;;;;;;;;;;;;;27.18;50.93;99128.62;1701457;84;20457;-69
2022/07/24 11:22:51;;;;;;;;;;;;;;;27.11;51.71;99134.44;1701198;84;20098;-69
2022/07/24 11:25:20;;;;;;;;;;;;;;;27.06;52.68;99134.34;1701399;83;20139;-69
2022/07/24 11:27:54;;;;;;;;;;;;;;;27.01;54.02;99134.06;1701334;83;20137;-70
2022/07/24 11:30:20;;;;;;;;;;;;;;;26.96;54.51;99138.98;1701646;83;21113;-70
2022/07/24 11:32:53;;;;;;;;;;;;;;;26.94;55.65;99144.84;1701407;83;20126;-70
2022/07/24 11:35:34;;;;;;;;;;;;;;;26.88;55.93;99141.75;1701369;84;20102;-71
2022/07/24 11:38:04;;;;;;;;;;;;;;;26.82;56.88;99139.87;1701339;83;20090;-70
2022/07/24 11:40:33;;;;;;;;;;;;;;;26.75;57.33;99140.83;1701517;83;20170;-70
2022/07/24 11:43:01;;;;;;;;;;;;;;;26.69;57.74;99146.78;1700796;83;21175;-70
2022/07/24 11:45:28;;;;;;;;;;;;;;;26.57;58.46;99151.69;1684557;84;20104;-69
2022/07/24 11:47:55;;;;;;;;;;;;;;;26.36;59.75;99152.11;1692849;84;20121;-70
2022/07/24 11:50:25;;;;;;;;;;;;;;;26.23;60.40;99152.72;1701398;84;20109;-69
2022/07/24 11:52:52;;;;;;;;;;;;;;;26.12;60.93;99161.17;1701206;84;20078;-70
2022/07/24 11:55:20;;;;;;;;;;;;;;;25.95;61.24;99150.45;1701427;83;21151;-69
2022/07/24 11:57:53;;;;;;;;;;;;;;;25.78;62.19;99158.58;1701116;84;20450;-70
2022/07/24 12:00:24;;;;;;;;;;;;;;;25.62;63.09;99159.21;1691231;84;20117;-69
2022/07/24 12:02:52;;;;;;;;;;;;;;;25.43;64.01;99160.71;1695619;84;20174;-68
2022/07/24 12:05:30;;;;;;;;;;;;;;;25.27;64.43;99157.17;1701147;83;20432;-69
2022/07/24 12:07:58;;;;;;;;;;;;;;;25.07;64.58;99163.28;1701059;84;21172;-70
2022/07/24 12:10:26;;;;;;;;;;;;;;;24.82;65.32;99162.20;1691626;85;20428;-69
2022/07/24 12:12:55;;;;;;;;;;;;;;;24.73;65.84;99161.92;1691889;85;20151;-69
2022/07/24 12:15:24;;;;;;;;;;;;;;;24.62;66.48;99167.66;1698287;84;20804;-69
2022/07/24 12:18:03;;;;;;;;;;;;;;;24.51;66.67;99170.41;1700905;84;20122;-71
2022/07/24 12:20:38;;;;;;;;;;;;;;;24.36;67.61;99173.37;1705239;83;21155;-70
2022/07/24 12:23:09;;;;;;;;;;;;;;;24.31;69.26;99164.00;1709585;82;20096;-70
2022/07/24 12:25:36;;;;;;;;;;;;;;;24.26;69.89;99166.50;1705239;83;20095;-70
2022/07/24 12:28:08;;;;;;;;;;;;;;;24.16;71.58;99165.97;1699368;84;20106;-72
2022/07/24 12:30:42;;;;;;;;;;;;;;;24.12;72.21;99173.62;1685768;84;20446;-70
2022/07/24 12:33:21;;;;;;;;;;;;;;;24.10;74.14;99175.44;1684489;83;20096;-71
2022/07/24 12:35:57;;;;;;;;;;;;;;;24.06;76.10;99176.69;1705271;83;20114;-76
2022/07/24 12:38:35;;;;;;;;;;;;;;;23.93;76.08;99181.41;1701414;84;20090;-69
2022/07/24 12:41:16;;;;;;;;;;;;;;;23.81;77.59;99183.91;1700658;84;20606;-69
2022/07/24 12:43:59;;;;;;;;;;;;;;;23.64;78.57;99187.08;1701471;84;20131;-68
2022/07/24 12:46:31;;;;;;;;;;;;;;;23.38;80.19;99189.83;1701484;84;20557;-70
2022/07/24 12:49:06;;;;;;;;;;;;;;;23.20;81.48;99179.34;1699136;84;20134;-70
2022/07/24 12:51:59;;;;;;;;;;;;;;;23.09;82.80;99179.44;1696626;83;20151;-70
2022/07/24 12:54:31;;;;;;;;;;;;;;;23.05;83.29;99177.26;1700495;83;20447;-69